sensor_id;sensor_type;location;lat;lon;timestamp;pressure;altitude;pressure_sealevel;temperature;humidity
77047;BME280;65977;56.380;44.022;2023-04-12T00:01:05;101019.34;;;7.10;45.34
77047;BME280;65977;56.380;44.022;2023-04-12T00:03:32;101019.56;;;7.07;45.50
77047;BME280;65977;56.380;44.022;2023-04-12T00:06:01;101015.44;;;7.03;45.50
77047;BME280;65977;56.380;44.022;2023-04-12T00:08:33;101017.44;;;6.99;45.45
77047;BME280;65977;56.380;44.022;2023-04-12T00:11:02;101018.34;;;6.98;45.67
77047;BME280;65977;56.380;44.022;2023-04-12T00:13:29;101017.69;;;6.94;45.37
77047;BME280;65977;56.380;44.022;2023-04-12T00:15:56;101011.88;;;6.89;45.72
77047;BME280;65977;56.380;44.022;2023-04-12T00:18:23;101016.22;;;6.90;45.56
77047;BME280;65977;56.380;44.022;2023-04-12T00:20:52;101011.16;;;6.87;45.98
77047;BME280;65977;56.380;44.022;2023-04-12T00:23:19;101024.41;;;6.86;45.94
77047;BME280;65977;56.380;44.022;2023-04-12T00:25:46;101000.56;;;6.75;45.99
77047;BME280;65977;56.380;44.022;2023-04-12T00:28:14;101022.13;;;6.80;45.65
77047;BME280;65977;56.380;44.022;2023-04-12T00:30:44;101025.06;;;6.75;45.89
77047;BME280;65977;56.380;44.022;2023-04-12T00:33:11;101022.06;;;6.67;46.20
77047;BME280;65977;56.380;44.022;2023-04-12T00:35:38;101020.66;;;6.62;46.49
77047;BME280;65977;56.380;44.022;2023-04-12T00:38:06;101024.59;;;6.55;46.42
77047;BME280;65977;56.380;44.022;2023-04-12T00:40:45;101025.72;;;6.51;47.14
77047;BME280;65977;56.380;44.022;2023-04-12T00:43:12;101026.00;;;6.46;47.16
77047;BME280;65977;56.380;44.022;2023-04-12T00:45:48;101029.75;;;6.42;47.16
77047;BME280;65977;56.380;44.022;2023-04-12T00:48:15;101028.16;;;6.40;46.90
77047;BME280;65977;56.380;44.022;2023-04-12T00:50:42;101023.84;;;6.38;47.01
77047;BME280;65977;56.380;44.022;2023-04-12T00:53:13;101006.78;;;6.31;47.35
77047;BME280;65977;56.380;44.022;2023-04-12T00:55:43;101018.59;;;6.38;47.31
77047;BME280;65977;56.380;44.022;2023-04-12T00:58:10;101015.13;;;6.38;47.36
77047;BME280;65977;56.380;44.022;2023-04-12T01:00:37;101016.06;;;6.37;47.57
77047;BME280;65977;56.380;44.022;2023-04-12T01:03:05;101011.84;;;6.34;46.93
77047;BME280;65977;56.380;44.022;2023-04-12T01:05:40;101015.56;;;6.30;47.60
77047;BME280;65977;56.380;44.022;2023-04-12T01:11:17;101008.84;;;6.26;47.75
77047;BME280;65977;56.380;44.022;2023-04-12T01:14:06;101010.91;;;6.21;47.49
77047;BME280;65977;56.380;44.022;2023-04-12T01:16:42;101008.63;;;6.15;47.71
77047;BME280;65977;56.380;44.022;2023-04-12T01:19:46;101016.72;;;6.12;48.05
77047;BME280;65977;56.380;44.022;2023-04-12T01:22:29;101020.53;;;6.07;47.85
77047;BME280;65977;56.380;44.022;2023-04-12T01:25:20;101001.22;;;5.94;47.65
77047;BME280;65977;56.380;44.022;2023-04-12T01:28:02;101008.81;;;5.98;47.88
77047;BME280;65977;56.380;44.022;2023-04-12T01:30:30;101012.44;;;5.96;47.74
77047;BME280;65977;56.380;44.022;2023-04-12T01:33:04;101015.25;;;5.93;47.98
77047;BME280;65977;56.380;44.022;2023-04-12T01:35:32;101006.72;;;5.89;47.91
77047;BME280;65977;56.380;44.022;2023-04-12T01:38:02;101011.22;;;5.87;48.18
77047;BME280;65977;56.380;44.022;2023-04-12T01:40:30;101012.91;;;5.88;47.80
77047;BME280;65977;56.380;44.022;2023-04-12T01:45:33;101002.22;;;5.91;47.73
77047;BME280;65977;56.380;44.022;2023-04-12T01:48:01;101008.22;;;5.93;47.88
77047;BME280;65977;56.380;44.022;2023-04-12T01:50:43;101002.13;;;5.93;48.08
77047;BME280;65977;56.380;44.022;2023-04-12T01:56:09;100996.81;;;5.94;48.04
77047;BME280;65977;56.380;44.022;2023-04-12T01:58:38;101005.44;;;5.96;47.84
77047;BME280;65977;56.380;44.022;2023-04-12T02:01:06;101000.19;;;5.96;47.71
77047;BME280;65977;56.380;44.022;2023-04-12T02:03:35;101007.31;;;5.94;47.66
77047;BME280;65977;56.380;44.022;2023-04-12T02:06:04;101017.97;;;5.91;47.69
77047;BME280;65977;56.380;44.022;2023-04-12T02:08:31;101014.66;;;5.88;47.70
77047;BME280;65977;56.380;44.022;2023-04-12T02:10:59;101014.78;;;5.86;47.65
77047;BME280;65977;56.380;44.022;2023-04-12T02:13:26;101008.75;;;5.84;47.87
77047;BME280;65977;56.380;44.022;2023-04-12T02:15:53;101007.00;;;5.85;48.01
77047;BME280;65977;56.380;44.022;2023-04-12T02:18:20;101010.63;;;5.82;47.84
77047;BME280;65977;56.380;44.022;2023-04-12T02:20:49;101008.94;;;5.81;47.92
77047;BME280;65977;56.380;44.022;2023-04-12T02:23:16;101004.59;;;5.80;47.98
77047;BME280;65977;56.380;44.022;2023-04-12T02:25:43;101006.31;;;5.81;48.08
77047;BME280;65977;56.380;44.022;2023-04-12T02:28:12;101013.25;;;5.82;48.12
77047;BME280;65977;56.380;44.022;2023-04-12T02:30:39;101017.53;;;5.83;48.46
77047;BME280;65977;56.380;44.022;2023-04-12T02:33:09;101016.63;;;5.84;48.24
77047;BME280;65977;56.380;44.022;2023-04-12T02:35:37;101013.84;;;5.87;48.13
77047;BME280;65977;56.380;44.022;2023-04-12T02:38:04;101007.75;;;5.87;48.50
77047;BME280;65977;56.380;44.022;2023-04-12T02:40:38;101010.00;;;5.93;48.16
77047;BME280;65977;56.380;44.022;2023-04-12T02:43:07;101021.06;;;5.98;47.99
77047;BME280;65977;56.380;44.022;2023-04-12T02:45:34;101011.34;;;6.00;48.25
77047;BME280;65977;56.380;44.022;2023-04-12T02:48:02;101013.50;;;6.07;47.86
77047;BME280;65977;56.380;44.022;2023-04-12T02:50:31;101015.75;;;6.13;48.08
77047;BME280;65977;56.380;44.022;2023-04-12T02:52:58;101017.16;;;6.19;47.76
77047;BME280;65977;56.380;44.022;2023-04-12T02:55:25;101012.38;;;6.25;47.62
77047;BME280;65977;56.380;44.022;2023-04-12T02:57:52;101021.31;;;6.37;47.61
77047;BME280;65977;56.380;44.022;2023-04-12T03:00:20;101023.28;;;6.48;47.64
77047;BME280;65977;56.380;44.022;2023-04-12T03:02:48;101014.84;;;6.57;47.16
77047;BME280;65977;56.380;44.022;2023-04-12T03:05:18;101022.16;;;6.66;47.17
77047;BME280;65977;56.380;44.022;2023-04-12T03:07:46;101003.50;;;6.70;46.99
77047;BME280;65977;56.380;44.022;2023-04-12T03:10:13;101017.91;;;6.91;46.92
77047;BME280;65977;56.380;44.022;2023-04-12T03:12:40;101019.75;;;7.04;46.51
77047;BME280;65977;56.380;44.022;2023-04-12T03:15:07;101027.69;;;7.16;46.99
77047;BME280;65977;56.380;44.022;2023-04-12T03:17:34;101028.59;;;7.29;46.61
77047;BME280;65977;56.380;44.022;2023-04-12T03:20:06;101035.69;;;7.41;46.22
77047;BME280;65977;56.380;44.022;2023-04-12T03:22:36;101033.00;;;7.55;45.98
77047;BME280;65977;56.380;44.022;2023-04-12T03:25:03;101032.09;;;7.69;45.80
77047;BME280;65977;56.380;44.022;2023-04-12T03:27:31;101032.03;;;7.83;45.59
77047;BME280;65977;56.380;44.022;2023-04-12T03:29:58;101024.91;;;7.98;45.38
77047;BME280;65977;56.380;44.022;2023-04-12T03:32:26;101033.44;;;8.14;45.08
77047;BME280;65977;56.380;44.022;2023-04-12T03:34:53;101029.06;;;8.27;44.71
77047;BME280;65977;56.380;44.022;2023-04-12T03:37:21;101033.91;;;8.46;44.57
77047;BME280;65977;56.380;44.022;2023-04-12T03:39:48;101025.69;;;8.63;44.53
77047;BME280;65977;56.380;44.022;2023-04-12T03:42:15;101018.81;;;8.73;44.44
77047;BME280;65977;56.380;44.022;2023-04-12T03:44:58;101022.34;;;8.97;44.08
77047;BME280;65977;56.380;44.022;2023-04-12T03:47:26;101024.50;;;9.16;43.83
77047;BME280;65977;56.380;44.022;2023-04-12T03:49:54;101022.94;;;9.37;43.42
77047;BME280;65977;56.380;44.022;2023-04-12T03:52:37;101027.25;;;9.62;43.03
77047;BME280;65977;56.380;44.022;2023-04-12T03:55:05;101023.88;;;9.83;42.61
77047;BME280;65977;56.380;44.022;2023-04-12T03:57:33;101023.56;;;10.10;42.04
77047;BME280;65977;56.380;44.022;2023-04-12T04:00:00;101036.75;;;10.34;41.69
77047;BME280;65977;56.380;44.022;2023-04-12T04:02:28;101027.88;;;10.57;41.11
77047;BME280;65977;56.380;44.022;2023-04-12T04:04:57;101030.28;;;10.82;40.78
77047;BME280;65977;56.380;44.022;2023-04-12T04:07:24;101034.34;;;11.08;40.53
77047;BME280;65977;56.380;44.022;2023-04-12T04:09:53;101025.97;;;11.35;40.39
77047;BME280;65977;56.380;44.022;2023-04-12T04:12:20;101022.31;;;11.58;39.96
77047;BME280;65977;56.380;44.022;2023-04-12T04:14:47;101032.19;;;11.88;39.76
77047;BME280;65977;56.380;44.022;2023-04-12T04:17:14;101032.13;;;12.20;39.17
77047;BME280;65977;56.380;44.022;2023-04-12T04:19:41;101028.00;;;12.57;38.66
77047;BME280;65977;56.380;44.022;2023-04-12T04:22:08;101032.44;;;13.17;38.25
77047;BME280;65977;56.380;44.022;2023-04-12T04:24:38;101029.69;;;14.14;36.81
77047;BME280;65977;56.380;44.022;2023-04-12T04:27:06;101021.50;;;16.75;32.89
77047;BME280;65977;56.380;44.022;2023-04-12T04:29:33;101014.81;;;19.97;28.16
77047;BME280;65977;56.380;44.022;2023-04-12T04:32:00;101010.09;;;22.92;23.79
77047;BME280;65977;56.380;44.022;2023-04-12T04:34:27;101006.72;;;25.46;20.46
77047;BME280;65977;56.380;44.022;2023-04-12T04:36:54;101007.28;;;27.62;18.05
77047;BME280;65977;56.380;44.022;2023-04-12T04:39:21;101010.50;;;29.50;16.50
77047;BME280;65977;56.380;44.022;2023-04-12T04:41:48;101004.06;;;31.10;15.01
77047;BME280;65977;56.380;44.022;2023-04-12T04:44:20;101015.25;;;32.53;13.81
77047;BME280;65977;56.380;44.022;2023-04-12T04:46:48;101009.97;;;33.80;12.75
77047;BME280;65977;56.380;44.022;2023-04-12T04:49:15;101012.56;;;34.91;11.70
77047;BME280;65977;56.380;44.022;2023-04-12T04:51:42;101008.78;;;35.85;11.07
77047;BME280;65977;56.380;44.022;2023-04-12T04:54:09;101010.22;;;36.68;10.25
77047;BME280;65977;56.380;44.022;2023-04-12T04:56:36;101010.28;;;37.48;9.63
77047;BME280;65977;56.380;44.022;2023-04-12T04:59:03;101010.19;;;38.23;8.82
77047;BME280;65977;56.380;44.022;2023-04-12T05:01:31;101014.97;;;38.90;8.20
77047;BME280;65977;56.380;44.022;2023-04-12T05:04:02;101016.44;;;39.51;8.11
77047;BME280;65977;56.380;44.022;2023-04-12T05:06:29;101022.25;;;40.07;7.60
77047;BME280;65977;56.380;44.022;2023-04-12T05:08:57;101016.84;;;40.55;7.69
77047;BME280;65977;56.380;44.022;2023-04-12T05:11:24;101019.00;;;41.06;7.37
77047;BME280;65977;56.380;44.022;2023-04-12T05:13:51;101017.41;;;41.65;6.83
77047;BME280;65977;56.380;44.022;2023-04-12T05:16:19;101019.50;;;42.19;6.50
77047;BME280;65977;56.380;44.022;2023-04-12T05:18:46;101015.63;;;42.58;6.26
77047;BME280;65977;56.380;44.022;2023-04-12T05:21:13;101016.09;;;42.90;5.88
77047;BME280;65977;56.380;44.022;2023-04-12T05:23:45;101023.22;;;43.28;5.76
77047;BME280;65977;56.380;44.022;2023-04-12T05:26:13;101021.41;;;43.53;5.86
77047;BME280;65977;56.380;44.022;2023-04-12T05:28:40;101028.22;;;43.85;5.42
77047;BME280;65977;56.380;44.022;2023-04-12T05:31:07;101032.97;;;44.17;5.05
77047;BME280;65977;56.380;44.022;2023-04-12T05:33:34;101032.38;;;44.56;4.79
77047;BME280;65977;56.380;44.022;2023-04-12T05:36:03;101027.06;;;44.88;5.22
77047;BME280;65977;56.380;44.022;2023-04-12T05:38:30;101017.22;;;45.18;4.71
77047;BME280;65977;56.380;44.022;2023-04-12T05:40:57;101025.44;;;45.51;4.60
77047;BME280;65977;56.380;44.022;2023-04-12T05:43:25;101018.22;;;45.77;4.47
77047;BME280;65977;56.380;44.022;2023-04-12T05:45:52;101019.97;;;46.10;4.84
77047;BME280;65977;56.380;44.022;2023-04-12T05:48:19;101024.53;;;46.46;4.61
77047;BME280;65977;56.380;44.022;2023-04-12T05:50:50;101022.78;;;46.72;3.48
77047;BME280;65977;56.380;44.022;2023-04-12T05:53:18;101021.06;;;46.83;3.82
77047;BME280;65977;56.380;44.022;2023-04-12T05:55:45;101016.94;;;46.96;3.57
77047;BME280;65977;56.380;44.022;2023-04-12T05:58:12;101018.94;;;47.12;3.59
77047;BME280;65977;56.380;44.022;2023-04-12T06:00:39;101013.53;;;47.03;3.52
77047;BME280;65977;56.380;44.022;2023-04-12T06:03:10;101007.13;;;46.87;3.58
77047;BME280;65977;56.380;44.022;2023-04-12T06:05:37;101013.41;;;46.80;3.43
77047;BME280;65977;56.380;44.022;2023-04-12T06:08:05;101014.44;;;46.91;3.51
77047;BME280;65977;56.380;44.022;2023-04-12T06:10:32;101014.31;;;47.19;3.21
77047;BME280;65977;56.380;44.022;2023-04-12T06:12:59;101022.31;;;47.55;2.93
77047;BME280;65977;56.380;44.022;2023-04-12T06:15:26;101026.53;;;47.84;3.04
77047;BME280;65977;56.380;44.022;2023-04-12T06:17:53;101026.53;;;48.07;2.62
77047;BME280;65977;56.380;44.022;2023-04-12T06:20:20;101023.97;;;48.17;2.86
77047;BME280;65977;56.380;44.022;2023-04-12T06:22:47;101019.38;;;48.09;2.80
77047;BME280;65977;56.380;44.022;2023-04-12T06:25:14;101025.06;;;48.13;2.59
77047;BME280;65977;56.380;44.022;2023-04-12T06:27:42;101022.16;;;48.29;2.65
77047;BME280;65977;56.380;44.022;2023-04-12T06:30:09;101023.25;;;48.47;2.76
77047;BME280;65977;56.380;44.022;2023-04-12T06:32:37;101015.97;;;48.65;2.35
77047;BME280;65977;56.380;44.022;2023-04-12T06:35:05;101020.81;;;48.91;2.24
77047;BME280;65977;56.380;44.022;2023-04-12T06:37:32;101021.28;;;49.22;2.21
77047;BME280;65977;56.380;44.022;2023-04-12T06:39:59;101014.50;;;49.57;1.88
77047;BME280;65977;56.380;44.022;2023-04-12T06:42:26;101010.84;;;49.89;1.97
77047;BME280;65977;56.380;44.022;2023-04-12T06:44:53;101021.19;;;50.15;1.79
77047;BME280;65977;56.380;44.022;2023-04-12T06:47:20;101020.28;;;50.44;1.45
77047;BME280;65977;56.380;44.022;2023-04-12T06:49:48;101014.38;;;50.60;1.67
77047;BME280;65977;56.380;44.022;2023-04-12T06:52:23;101016.88;;;50.76;2.09
77047;BME280;65977;56.380;44.022;2023-04-12T06:54:51;101012.66;;;51.03;1.61
77047;BME280;65977;56.380;44.022;2023-04-12T06:57:19;101012.03;;;51.34;1.53
77047;BME280;65977;56.380;44.022;2023-04-12T06:59:46;101013.75;;;51.60;1.25
77047;BME280;65977;56.380;44.022;2023-04-12T07:02:13;101019.03;;;51.72;1.58
77047;BME280;65977;56.380;44.022;2023-04-12T07:04:40;101021.06;;;51.86;0.85
77047;BME280;65977;56.380;44.022;2023-04-12T07:07:08;101024.69;;;51.83;1.34
77047;BME280;65977;56.380;44.022;2023-04-12T07:09:36;101005.78;;;51.87;0.70
77047;BME280;65977;56.380;44.022;2023-04-12T07:12:03;101018.66;;;51.81;0.93
77047;BME280;65977;56.380;44.022;2023-04-12T07:14:30;101017.03;;;51.90;1.59
77047;BME280;65977;56.380;44.022;2023-04-12T07:16:59;101015.47;;;52.10;1.79
77047;BME280;65977;56.380;44.022;2023-04-12T07:19:26;100995.75;;;52.14;1.68
77047;BME280;65977;56.380;44.022;2023-04-12T07:21:55;101010.66;;;52.07;1.53
77047;BME280;65977;56.380;44.022;2023-04-12T07:24:22;101009.84;;;52.21;1.44
77047;BME280;65977;56.380;44.022;2023-04-12T07:26:52;101004.63;;;52.37;1.63
77047;BME280;65977;56.380;44.022;2023-04-12T07:29:20;100998.97;;;52.55;1.37
77047;BME280;65977;56.380;44.022;2023-04-12T07:31:47;101007.44;;;52.72;0.99
77047;BME280;65977;56.380;44.022;2023-04-12T07:34:14;101004.59;;;52.86;0.92
77047;BME280;65977;56.380;44.022;2023-04-12T07:36:41;101004.97;;;53.03;0.70
77047;BME280;65977;56.380;44.022;2023-04-12T07:39:10;101001.69;;;53.18;0.64
77047;BME280;65977;56.380;44.022;2023-04-12T07:41:41;100988.69;;;53.42;1.51
77047;BME280;65977;56.380;44.022;2023-04-12T07:44:11;100992.56;;;53.69;1.08
77047;BME280;65977;56.380;44.022;2023-04-12T07:46:39;100995.66;;;53.96;0.45
77047;BME280;65977;56.380;44.022;2023-04-12T07:49:07;100981.09;;;53.94;1.07
77047;BME280;65977;56.380;44.022;2023-04-12T07:51:36;100995.75;;;53.78;0.71
77047;BME280;65977;56.380;44.022;2023-04-12T07:54:03;100996.94;;;53.88;0.83
77047;BME280;65977;56.380;44.022;2023-04-12T07:56:33;100988.84;;;53.86;0.45
77047;BME280;65977;56.380;44.022;2023-04-12T07:59:00;100987.28;;;53.75;0.84
77047;BME280;65977;56.380;44.022;2023-04-12T08:01:27;100995.84;;;53.61;0.52
77047;BME280;65977;56.380;44.022;2023-04-12T08:03:54;100982.53;;;53.61;0.93
77047;BME280;65977;56.380;44.022;2023-04-12T08:06:22;101000.63;;;53.74;0.50
77047;BME280;65977;56.380;44.022;2023-04-12T08:08:49;100988.72;;;53.31;1.22
77047;BME280;65977;56.380;44.022;2023-04-12T08:11:16;100982.25;;;53.34;0.44
77047;BME280;65977;56.380;44.022;2023-04-12T08:13:43;100987.06;;;53.44;0.40
77047;BME280;65977;56.380;44.022;2023-04-12T08:16:10;100992.13;;;53.78;1.22
77047;BME280;65977;56.380;44.022;2023-04-12T08:18:38;100988.69;;;54.07;0.58
77047;BME280;65977;56.380;44.022;2023-04-12T08:21:06;100978.53;;;54.17;0.38
77047;BME280;65977;56.380;44.022;2023-04-12T08:23:33;100988.63;;;54.18;0.26
77047;BME280;65977;56.380;44.022;2023-04-12T08:26:00;100986.94;;;54.24;0.28
77047;BME280;65977;56.380;44.022;2023-04-12T08:28:30;100987.50;;;54.01;0.75
77047;BME280;65977;56.380;44.022;2023-04-12T08:30:57;100996.53;;;53.82;0.42
77047;BME280;65977;56.380;44.022;2023-04-12T08:33:25;100980.38;;;53.83;0.48
77047;BME280;65977;56.380;44.022;2023-04-12T08:35:53;100986.84;;;53.80;0.63
77047;BME280;65977;56.380;44.022;2023-04-12T08:38:20;100982.72;;;53.95;0.37
77047;BME280;65977;56.380;44.022;2023-04-12T08:41:04;100976.75;;;53.79;0.65
77047;BME280;65977;56.380;44.022;2023-04-12T08:43:32;100980.00;;;53.77;0.94
77047;BME280;65977;56.380;44.022;2023-04-12T08:46:00;100983.22;;;53.79;0.73
77047;BME280;65977;56.380;44.022;2023-04-12T08:48:27;100977.97;;;53.85;0.50
77047;BME280;65977;56.380;44.022;2023-04-12T08:50:55;100970.97;;;53.96;0.18
77047;BME280;65977;56.380;44.022;2023-04-12T08:53:23;100969.22;;;54.17;0.08
77047;BME280;65977;56.380;44.022;2023-04-12T08:55:50;100970.66;;;54.35;0.42
77047;BME280;65977;56.380;44.022;2023-04-12T08:58:18;100964.47;;;54.47;0.29
77047;BME280;65977;56.380;44.022;2023-04-12T09:00:46;100966.94;;;54.45;0.26
77047;BME280;65977;56.380;44.022;2023-04-12T09:03:14;100964.56;;;54.40;0.21
77047;BME280;65977;56.380;44.022;2023-04-12T09:05:42;100965.75;;;54.39;0.37
77047;BME280;65977;56.380;44.022;2023-04-12T09:08:09;100959.34;;;54.35;0.14
77047;BME280;65977;56.380;44.022;2023-04-12T09:10:37;100953.41;;;54.19;0.48
77047;BME280;65977;56.380;44.022;2023-04-12T09:13:05;100946.84;;;54.29;0.02
77047;BME280;65977;56.380;44.022;2023-04-12T09:15:32;100944.28;;;54.49;0.63
77047;BME280;65977;56.380;44.022;2023-04-12T09:18:18;100953.84;;;54.62;0.00
77047;BME280;65977;56.380;44.022;2023-04-12T09:20:45;100934.31;;;54.71;0.00
77047;BME280;65977;56.380;44.022;2023-04-12T09:23:16;100941.72;;;54.61;0.43
77047;BME280;65977;56.380;44.022;2023-04-12T09:25:44;100937.78;;;54.45;0.48
77047;BME280;65977;56.380;44.022;2023-04-12T09:28:25;100929.47;;;54.31;0.34
77047;BME280;65977;56.380;44.022;2023-04-12T09:30:53;100934.53;;;54.05;0.48
77047;BME280;65977;56.380;44.022;2023-04-12T09:33:23;100931.56;;;53.68;0.39
77047;BME280;65977;56.380;44.022;2023-04-12T09:36:02;100926.88;;;53.40;0.54
77047;BME280;65977;56.380;44.022;2023-04-12T09:38:30;100931.38;;;53.34;0.24
77047;BME280;65977;56.380;44.022;2023-04-12T09:41:18;100928.50;;;53.38;0.10
77047;BME280;65977;56.380;44.022;2023-04-12T09:43:51;100919.16;;;53.55;0.80
77047;BME280;65977;56.380;44.022;2023-04-12T09:46:18;100913.50;;;53.55;0.57
77047;BME280;65977;56.380;44.022;2023-04-12T09:48:53;100915.28;;;53.21;0.28
77047;BME280;65977;56.380;44.022;2023-04-12T09:51:28;100908.94;;;52.99;0.60
77047;BME280;65977;56.380;44.022;2023-04-12T09:54:03;100904.94;;;52.79;0.36
77047;BME280;65977;56.380;44.022;2023-04-12T09:56:35;100911.06;;;52.60;0.58
77047;BME280;65977;56.380;44.022;2023-04-12T09:59:05;100913.09;;;52.34;0.38
77047;BME280;65977;56.380;44.022;2023-04-12T10:01:39;100904.06;;;51.23;1.20
77047;BME280;65977;56.380;44.022;2023-04-12T10:04:08;100901.59;;;51.00;1.09
77047;BME280;65977;56.380;44.022;2023-04-12T10:06:36;100897.63;;;51.15;0.98
77047;BME280;65977;56.380;44.022;2023-04-12T10:09:03;100895.00;;;50.72;0.78
77047;BME280;65977;56.380;44.022;2023-04-12T10:11:31;100894.59;;;50.73;1.21
77047;BME280;65977;56.380;44.022;2023-04-12T10:14:02;100885.38;;;50.83;0.86
77047;BME280;65977;56.380;44.022;2023-04-12T10:16:35;100885.22;;;51.45;0.95
77047;BME280;65977;56.380;44.022;2023-04-12T10:19:06;100880.06;;;52.07;1.25
77047;BME280;65977;56.380;44.022;2023-04-12T10:21:35;100872.34;;;52.57;0.69
77047;BME280;65977;56.380;44.022;2023-04-12T10:24:02;100874.25;;;52.91;1.09
77047;BME280;65977;56.380;44.022;2023-04-12T10:26:29;100870.19;;;52.85;0.88
77047;BME280;65977;56.380;44.022;2023-04-12T10:29:29;100874.66;;;52.79;0.62
77047;BME280;65977;56.380;44.022;2023-04-12T10:32:16;100871.47;;;52.70;0.39
77047;BME280;65977;56.380;44.022;2023-04-12T10:34:50;100875.16;;;52.50;0.88
77047;BME280;65977;56.380;44.022;2023-04-12T10:37:18;100879.22;;;52.38;0.99
77047;BME280;65977;56.380;44.022;2023-04-12T10:39:52;100872.34;;;52.39;0.56
77047;BME280;65977;56.380;44.022;2023-04-12T10:42:26;100874.81;;;52.19;0.67
77047;BME280;65977;56.380;44.022;2023-04-12T10:44:54;100878.44;;;51.63;0.99
77047;BME280;65977;56.380;44.022;2023-04-12T10:55:39;100848.34;;;50.74;1.15
77047;BME280;65977;56.380;44.022;2023-04-12T10:58:08;100845.13;;;50.72;1.09
77047;BME280;65977;56.380;44.022;2023-04-12T11:03:26;100841.06;;;50.66;1.58
77047;BME280;65977;56.380;44.022;2023-04-12T11:06:03;100841.34;;;50.47;1.05
77047;BME280;65977;56.380;44.022;2023-04-12T11:08:53;100834.97;;;49.15;1.25
77047;BME280;65977;56.380;44.022;2023-04-12T11:11:24;100821.72;;;48.52;1.95
77047;BME280;65977;56.380;44.022;2023-04-12T11:13:54;100825.91;;;48.36;1.79
77047;BME280;65977;56.380;44.022;2023-04-12T11:16:22;100823.19;;;48.43;1.85
77047;BME280;65977;56.380;44.022;2023-04-12T11:18:49;100817.63;;;48.46;1.59
77047;BME280;65977;56.380;44.022;2023-04-12T11:21:21;100810.56;;;48.56;1.84
77047;BME280;65977;56.380;44.022;2023-04-12T11:23:49;100814.81;;;48.46;2.26
77047;BME280;65977;56.380;44.022;2023-04-12T11:26:19;100816.03;;;48.19;2.06
77047;BME280;65977;56.380;44.022;2023-04-12T11:28:47;100818.00;;;47.92;2.08
77047;BME280;65977;56.380;44.022;2023-04-12T11:31:19;100804.63;;;47.82;1.75
77047;BME280;65977;56.380;44.022;2023-04-12T11:33:47;100801.44;;;47.61;2.36
77047;BME280;65977;56.380;44.022;2023-04-12T11:36:14;100805.50;;;47.64;2.24
77047;BME280;65977;56.380;44.022;2023-04-12T11:38:42;100787.38;;;47.57;2.00
77047;BME280;65977;56.380;44.022;2023-04-12T11:41:13;100799.56;;;47.69;1.75
77047;BME280;65977;56.380;44.022;2023-04-12T11:43:40;100792.38;;;47.68;1.85
77047;BME280;65977;56.380;44.022;2023-04-12T11:46:08;100780.38;;;47.25;2.40
77047;BME280;65977;56.380;44.022;2023-04-12T11:48:35;100776.19;;;45.89;3.02
77047;BME280;65977;56.380;44.022;2023-04-12T11:51:20;100775.38;;;44.06;3.38
77047;BME280;65977;56.380;44.022;2023-04-12T11:53:52;100771.97;;;42.25;3.88
77047;BME280;65977;56.380;44.022;2023-04-12T11:56:19;100775.03;;;40.67;4.76
77047;BME280;65977;56.380;44.022;2023-04-12T11:58:48;100780.63;;;39.09;5.17
77047;BME280;65977;56.380;44.022;2023-04-12T12:01:19;100769.81;;;37.60;6.26
77047;BME280;65977;56.380;44.022;2023-04-12T12:03:48;100767.53;;;36.28;6.45
77047;BME280;65977;56.380;44.022;2023-04-12T12:06:19;100762.13;;;35.18;7.23
77047;BME280;65977;56.380;44.022;2023-04-12T12:08:50;100761.94;;;34.21;8.04
77047;BME280;65977;56.380;44.022;2023-04-12T12:11:22;100748.47;;;33.31;8.44
77047;BME280;65977;56.380;44.022;2023-04-12T12:13:53;100752.19;;;32.39;8.90
77047;BME280;65977;56.380;44.022;2023-04-12T12:16:27;100761.59;;;31.49;9.50
77047;BME280;65977;56.380;44.022;2023-04-12T12:18:56;100752.53;;;30.80;9.99
77047;BME280;65977;56.380;44.022;2023-04-12T12:21:24;100755.13;;;30.17;9.95
77047;BME280;65977;56.380;44.022;2023-04-12T12:23:55;100753.06;;;29.47;10.80
77047;BME280;65977;56.380;44.022;2023-04-12T12:26:24;100752.66;;;28.89;11.15
77047;BME280;65977;56.380;44.022;2023-04-12T12:28:56;100750.50;;;28.46;11.57
77047;BME280;65977;56.380;44.022;2023-04-12T12:31:24;100751.00;;;28.14;11.76
77047;BME280;65977;56.380;44.022;2023-04-12T12:33:55;100747.00;;;27.82;11.66
77047;BME280;65977;56.380;44.022;2023-04-12T12:36:33;100735.13;;;27.48;11.85
77047;BME280;65977;56.380;44.022;2023-04-12T12:41:33;100734.00;;;27.03;12.78
77047;BME280;65977;56.380;44.022;2023-04-12T12:44:00;100733.88;;;26.86;12.94
77047;BME280;65977;56.380;44.022;2023-04-12T12:46:28;100737.94;;;26.66;12.63
77047;BME280;65977;56.380;44.022;2023-04-12T12:49:16;100727.47;;;26.40;13.21
77047;BME280;65977;56.380;44.022;2023-04-12T12:51:43;100729.41;;;26.21;13.18
77047;BME280;65977;56.380;44.022;2023-04-12T12:54:10;100725.34;;;25.94;13.35
77047;BME280;65977;56.380;44.022;2023-04-12T12:56:37;100729.41;;;25.66;13.85
77047;BME280;65977;56.380;44.022;2023-04-12T12:59:05;100723.59;;;25.45;13.80
77047;BME280;65977;56.380;44.022;2023-04-12T13:01:32;100724.84;;;25.24;13.93
77047;BME280;65977;56.380;44.022;2023-04-12T13:03:59;100726.06;;;25.03;14.17
77047;BME280;65977;56.380;44.022;2023-04-12T13:06:27;100726.84;;;24.86;14.50
77047;BME280;65977;56.380;44.022;2023-04-12T13:08:54;100715.34;;;24.59;14.85
77047;BME280;65977;56.380;44.022;2023-04-12T13:11:22;100709.25;;;24.39;14.97
77047;BME280;65977;56.380;44.022;2023-04-12T13:13:49;100712.91;;;24.20;15.11
77047;BME280;65977;56.380;44.022;2023-04-12T13:16:16;100709.19;;;24.01;15.32
77047;BME280;65977;56.380;44.022;2023-04-12T13:18:43;100705.16;;;23.79;15.36
77047;BME280;65977;56.380;44.022;2023-04-12T13:21:10;100713.94;;;23.61;15.36